createdAt,value
2023-04-11T00:01:43.219Z,19.70
2023-04-11T00:04:11.935Z,19.90
2023-04-11T00:06:39.945Z,20.00
2023-04-11T00:09:07.896Z,19.60
2023-04-11T00:11:35.875Z,20.00
2023-04-11T00:14:05.538Z,19.70
2023-04-11T00:16:34.349Z,19.70
2023-04-11T00:19:02.609Z,19.80
2023-04-11T00:21:30.639Z,19.90
2023-04-11T00:23:58.655Z,19.60
2023-04-11T00:26:27.215Z,19.90
2023-04-11T00:28:55.393Z,19.90
2023-04-11T00:31:24.976Z,20.00
2023-04-11T00:33:52.994Z,19.70
2023-04-11T00:36:21.199Z,20.00
2023-04-11T00:38:49.388Z,19.80
2023-04-11T00:41:17.620Z,19.60
2023-04-11T00:43:45.642Z,19.80
2023-04-11T00:46:14.734Z,19.80
2023-04-11T00:48:44.233Z,19.90
2023-04-11T00:51:12.244Z,20.00
2023-04-11T00:53:40.360Z,19.80
2023-04-11T00:56:09.763Z,20.00
2023-04-11T00:58:38.431Z,20.00
2023-04-11T01:01:09.618Z,20.10
2023-04-11T01:03:38.348Z,20.10
2023-04-11T01:06:09.887Z,20.10
2023-04-11T01:08:39.337Z,19.50
2023-04-11T01:11:09.793Z,19.70
2023-04-11T01:13:40.569Z,19.80
2023-04-11T01:16:10.273Z,19.60
2023-04-11T01:18:38.501Z,19.70
2023-04-11T01:21:10.048Z,19.80
2023-04-11T01:23:39.550Z,19.70
2023-04-11T01:26:08.051Z,19.70
2023-04-11T01:28:36.048Z,19.80
2023-04-11T01:31:04.084Z,19.70
2023-04-11T01:33:32.074Z,19.90
2023-04-11T01:36:00.201Z,19.80
2023-04-11T01:38:28.390Z,19.90
2023-04-11T01:40:59.184Z,19.80
2023-04-11T01:43:27.454Z,19.80
2023-04-11T01:45:55.509Z,19.80
2023-04-11T01:48:23.667Z,20.00
2023-04-11T01:50:52.992Z,19.90
2023-04-11T01:53:20.965Z,19.70
2023-04-11T01:55:48.937Z,19.80
2023-04-11T01:58:18.214Z,19.90
2023-04-11T02:00:46.178Z,19.60
2023-04-11T02:03:14.334Z,20.00
2023-04-11T02:05:43.960Z,20.00
2023-04-11T02:08:12.257Z,20.00
2023-04-11T02:10:40.206Z,19.70
2023-04-11T02:13:08.149Z,19.70
2023-04-11T02:15:37.554Z,19.70
2023-04-11T02:18:06.942Z,19.60
2023-04-11T02:20:35.013Z,19.50
2023-04-11T02:23:04.458Z,19.70
2023-04-11T02:25:32.671Z,19.70
2023-04-11T02:28:01.333Z,20.10
2023-04-11T02:30:29.523Z,19.70
2023-04-11T02:32:58.861Z,19.60
2023-04-11T02:35:27.112Z,19.70
2023-04-11T02:37:55.171Z,19.50
2023-04-11T02:40:23.230Z,19.70
2023-04-11T02:42:51.234Z,20.10
2023-04-11T02:45:19.378Z,19.90
2023-04-11T02:47:47.345Z,20.00
2023-04-11T02:50:16.918Z,19.60
2023-04-11T02:52:47.634Z,19.70
2023-04-11T02:55:15.947Z,19.70
2023-04-11T02:57:43.944Z,19.60
2023-04-11T03:00:13.520Z,19.70
2023-04-11T03:02:42.250Z,19.60
2023-04-11T03:05:10.734Z,19.70
2023-04-11T03:07:40.544Z,19.60
2023-04-11T03:10:09.955Z,19.90
2023-04-11T03:12:38.115Z,19.80
2023-04-11T03:15:07.229Z,19.80
2023-04-11T03:17:35.375Z,19.70
2023-04-11T03:20:07.118Z,19.60
2023-04-11T03:22:35.273Z,19.80
2023-04-11T03:25:05.385Z,19.70
2023-04-11T03:27:33.383Z,19.60
2023-04-11T03:30:01.465Z,19.60
2023-04-11T03:32:29.604Z,19.90
2023-04-11T03:35:01.575Z,19.60
2023-04-11T03:37:29.603Z,19.60
2023-04-11T03:39:57.782Z,19.90
2023-04-11T03:42:27.469Z,19.50
2023-04-11T03:44:55.440Z,19.60
2023-04-11T03:47:23.392Z,19.50
2023-04-11T03:49:51.917Z,19.30
2023-04-11T03:52:20.100Z,19.70
2023-04-11T03:54:48.125Z,19.80
2023-04-11T03:57:16.278Z,19.70
2023-04-11T03:59:47.800Z,19.40
2023-04-11T04:02:16.846Z,19.50
2023-04-11T04:04:48.619Z,19.70
2023-04-11T04:07:17.989Z,19.70
2023-04-11T04:09:46.293Z,19.50
2023-04-11T04:12:14.448Z,19.40
2023-04-11T04:14:42.437Z,19.60
2023-04-11T04:17:13.043Z,19.70
2023-04-11T04:19:41.253Z,19.50
2023-04-11T04:22:11.846Z,19.70
2023-04-11T04:24:42.012Z,19.50
2023-04-11T04:27:10.160Z,19.60
2023-04-11T04:29:39.003Z,19.50
2023-04-11T04:32:10.888Z,19.70
2023-04-11T04:34:46.892Z,19.50
2023-04-11T04:37:21.691Z,19.70
2023-04-11T04:39:54.101Z,19.60
2023-04-11T04:42:23.844Z,19.60
2023-04-11T04:44:52.254Z,19.60
2023-04-11T04:47:22.326Z,19.80
2023-04-11T04:49:56.529Z,19.50
2023-04-11T04:52:25.738Z,19.70
2023-04-11T04:54:57.785Z,19.70
2023-04-11T04:57:25.864Z,19.60
2023-04-11T04:59:53.966Z,19.70
2023-04-11T05:02:33.207Z,19.60
2023-04-11T05:05:04.235Z,19.80
2023-04-11T05:07:32.395Z,19.80
2023-04-11T05:10:00.330Z,19.80
2023-04-11T05:12:28.741Z,19.80
2023-04-11T05:14:56.897Z,19.50
2023-04-11T05:17:27.724Z,19.50
2023-04-11T05:19:55.784Z,19.60
2023-04-11T05:22:25.064Z,19.60
2023-04-11T05:24:53.056Z,19.70
2023-04-11T05:27:21.026Z,19.60
2023-04-11T05:29:49.045Z,19.50
2023-04-11T05:32:16.980Z,19.70
2023-04-11T05:34:58.823Z,19.60
2023-04-11T05:37:31.059Z,19.80
2023-04-11T05:39:59.913Z,19.60
2023-04-11T05:42:27.920Z,19.70
2023-04-11T05:44:55.862Z,19.40
2023-04-11T05:47:25.003Z,19.80
2023-04-11T05:49:52.987Z,19.70
2023-04-11T05:52:21.231Z,19.60
2023-04-11T05:54:50.682Z,19.70
2023-04-11T05:57:18.704Z,19.80
2023-04-11T05:59:49.655Z,19.60
2023-04-11T06:02:17.843Z,19.70
2023-04-11T06:04:46.011Z,19.60
2023-04-11T06:07:14.123Z,19.60
2023-04-11T06:09:42.469Z,19.80
2023-04-11T06:12:12.069Z,19.80
2023-04-11T06:14:40.690Z,19.70
2023-04-11T06:17:09.463Z,19.80
2023-04-11T06:19:38.238Z,19.70
2023-04-11T06:22:06.327Z,19.80
2023-04-11T06:24:38.882Z,20.00
2023-04-11T06:27:09.799Z,20.00
2023-04-11T06:29:39.280Z,19.60
2023-04-11T06:32:07.716Z,19.80
2023-04-11T06:34:36.210Z,19.50
2023-04-11T06:37:04.229Z,19.70
2023-04-11T06:39:32.188Z,19.80
2023-04-11T06:42:00.446Z,20.00
2023-04-11T06:44:28.655Z,20.20
2023-04-11T06:46:59.052Z,19.90
2023-04-11T06:49:29.020Z,20.00
2023-04-11T06:51:57.092Z,20.00
2023-04-11T06:54:25.045Z,19.90
2023-04-11T06:56:53.158Z,20.00
2023-04-11T06:59:21.601Z,20.20
2023-04-11T07:01:53.571Z,20.30
2023-04-11T07:04:23.135Z,20.20
2023-04-11T07:06:51.674Z,20.40
2023-04-11T07:09:19.623Z,19.90
2023-04-11T07:11:47.637Z,20.10
2023-04-11T07:14:16.053Z,20.40
2023-04-11T07:16:44.120Z,20.30
2023-04-11T07:19:12.154Z,20.10
2023-04-11T07:21:41.865Z,20.10
2023-04-11T07:24:11.746Z,20.10
2023-04-11T07:26:42.286Z,20.20
2023-04-11T07:29:12.363Z,20.20
2023-04-11T07:31:44.658Z,20.40
2023-04-11T07:34:12.669Z,20.30
2023-04-11T07:36:42.539Z,20.40
2023-04-11T07:39:13.473Z,20.30
2023-04-11T07:41:41.551Z,20.50
2023-04-11T07:44:09.605Z,20.30
2023-04-11T07:46:37.653Z,20.40
2023-04-11T07:49:05.664Z,20.40
2023-04-11T07:51:33.730Z,20.50
2023-04-11T07:54:03.248Z,20.40
2023-04-11T07:56:31.326Z,20.40
2023-04-11T07:58:59.653Z,20.30
2023-04-11T08:01:27.815Z,20.60
2023-04-11T08:03:57.351Z,20.20
2023-04-11T08:06:26.506Z,20.50
2023-04-11T08:08:54.454Z,19.90
2023-04-11T08:11:23.766Z,20.30
2023-04-11T08:13:51.799Z,20.20
2023-04-11T08:16:19.859Z,20.30
2023-04-11T08:18:48.024Z,20.50
2023-04-11T08:21:16.144Z,20.40
2023-04-11T08:23:44.606Z,20.50
2023-04-11T08:26:13.151Z,20.50
2023-04-11T08:28:43.558Z,20.60
2023-04-11T08:31:13.043Z,20.70
2023-04-11T08:33:41.768Z,20.60
2023-04-11T08:36:11.243Z,21.10
2023-04-11T08:38:40.634Z,21.20
2023-04-11T08:41:08.762Z,21.00
2023-04-11T08:43:37.669Z,20.80
2023-04-11T08:46:08.771Z,21.00
2023-04-11T08:48:37.073Z,21.30
2023-04-11T08:51:05.468Z,20.90
2023-04-11T08:53:37.743Z,21.10
2023-04-11T08:56:06.327Z,20.80
2023-04-11T08:58:34.280Z,21.30
2023-04-11T09:01:27.267Z,21.30
2023-04-11T09:03:56.563Z,21.20
2023-04-11T09:06:26.558Z,21.30
2023-04-11T09:08:54.540Z,21.40
2023-04-11T09:11:22.577Z,21.40
2023-04-11T09:14:07.314Z,21.30
2023-04-11T09:16:36.907Z,21.30
2023-04-11T09:19:05.074Z,21.30
2023-04-11T09:21:49.404Z,21.60
2023-04-11T09:24:18.480Z,21.60
2023-04-11T09:26:46.566Z,21.30
2023-04-11T09:29:37.111Z,21.40
2023-04-11T09:32:06.881Z,21.50
2023-04-11T09:34:39.114Z,21.30
2023-04-11T09:37:08.592Z,21.40
2023-04-11T09:39:36.942Z,21.60
2023-04-11T09:42:25.069Z,21.60
2023-04-11T09:44:53.088Z,21.60
2023-04-11T09:47:22.852Z,21.70
2023-04-11T09:49:52.765Z,21.50
2023-04-11T09:52:21.729Z,21.60
2023-04-11T09:54:51.993Z,21.70
2023-04-11T09:57:23.520Z,22.20
2023-04-11T09:59:54.299Z,22.00
2023-04-11T10:02:23.866Z,22.20
2023-04-11T10:04:54.637Z,22.00
2023-04-11T10:07:23.388Z,22.20
2023-04-11T10:09:51.668Z,22.10
2023-04-11T10:12:32.643Z,22.30
2023-04-11T10:15:08.430Z,22.40
2023-04-11T10:17:38.066Z,22.60
2023-04-11T10:20:44.751Z,22.40
2023-04-11T10:23:13.998Z,22.10
2023-04-11T10:25:56.309Z,22.40
2023-04-11T10:28:38.145Z,22.60
2023-04-11T10:31:09.841Z,22.60
2023-04-11T10:33:41.863Z,22.40
2023-04-11T10:36:12.524Z,22.40
2023-04-11T10:38:49.431Z,22.50
2023-04-11T10:41:31.221Z,22.60
2023-04-11T10:44:18.210Z,22.30
2023-04-11T10:46:53.458Z,22.30
2023-04-11T10:49:40.998Z,22.40
2023-04-11T10:52:19.098Z,22.40
2023-04-11T10:54:47.364Z,22.70
2023-04-11T10:57:15.748Z,22.50
2023-04-11T11:00:12.982Z,22.70
2023-04-11T11:02:42.955Z,22.30
2023-04-11T11:05:24.648Z,22.40
2023-04-11T11:07:54.698Z,22.40
2023-04-11T11:10:40.010Z,22.70
2023-04-11T11:13:08.290Z,22.60
2023-04-11T11:15:38.358Z,22.80
2023-04-11T11:18:09.741Z,22.70
2023-04-11T11:20:39.910Z,22.80
2023-04-11T11:23:09.971Z,23.00
2023-04-11T11:25:38.194Z,22.70
2023-04-11T11:28:08.386Z,23.00
2023-04-11T11:30:37.587Z,22.90
2023-04-11T11:33:19.272Z,23.00
2023-04-11T11:35:53.833Z,22.90
2023-04-11T11:38:23.884Z,22.90
2023-04-11T11:40:53.710Z,23.00
2023-04-11T11:43:21.996Z,22.90
2023-04-11T11:46:12.008Z,22.80
2023-04-11T11:48:40.345Z,23.00
2023-04-11T11:51:09.708Z,23.00
2023-04-11T11:53:38.001Z,22.80
2023-04-11T11:56:16.948Z,22.80
2023-04-11T11:58:46.099Z,22.80
2023-04-11T12:01:17.095Z,22.80
2023-04-11T12:03:48.218Z,22.90
2023-04-11T12:06:18.183Z,22.70
2023-04-11T12:08:50.244Z,22.50
2023-04-11T12:11:19.222Z,22.70
2023-04-11T12:13:53.086Z,22.70
2023-04-11T12:16:23.211Z,22.70
2023-04-11T12:18:51.221Z,22.70
2023-04-11T12:21:20.649Z,22.70
2023-04-11T12:23:48.546Z,22.90
2023-04-11T12:26:17.651Z,22.60
2023-04-11T12:28:45.679Z,22.90
2023-04-11T12:31:14.459Z,22.90
2023-04-11T12:33:42.589Z,22.60
2023-04-11T12:36:12.128Z,22.70
2023-04-11T12:38:42.100Z,22.70
2023-04-11T12:43:42.202Z,22.70
2023-04-11T12:46:11.484Z,22.60
2023-04-11T12:48:39.480Z,22.60
2023-04-11T12:51:07.900Z,23.00
2023-04-11T12:53:35.872Z,23.00
2023-04-11T12:56:06.064Z,22.60
2023-04-11T12:58:34.041Z,22.80
2023-04-11T13:01:02.014Z,23.10
2023-04-11T13:03:30.114Z,23.10
2023-04-11T13:05:58.147Z,22.80
2023-04-11T13:08:27.171Z,23.00
2023-04-11T13:10:55.969Z,23.00
2023-04-11T13:13:25.757Z,22.70
2023-04-11T13:15:53.672Z,23.20
2023-04-11T13:18:21.694Z,22.80
2023-04-11T13:20:49.596Z,22.50
2023-04-11T13:23:17.634Z,23.00
2023-04-11T13:25:45.661Z,22.90
2023-04-11T13:28:13.657Z,22.90
2023-04-11T13:30:43.009Z,23.00
2023-04-11T13:33:11.174Z,22.80
2023-04-11T13:35:39.295Z,23.40
2023-04-11T13:38:07.325Z,23.10
2023-04-11T13:40:35.857Z,23.00
2023-04-11T13:43:04.133Z,23.10
2023-04-11T13:45:32.543Z,23.10
2023-04-11T13:48:02.045Z,23.00
2023-04-11T13:50:30.140Z,23.20
2023-04-11T13:52:58.165Z,23.30
2023-04-11T13:55:26.156Z,23.10
2023-04-11T13:57:54.177Z,23.30
2023-04-11T14:00:22.976Z,23.10
2023-04-11T14:02:52.642Z,23.20
2023-04-11T14:05:22.360Z,23.10
2023-04-11T14:07:50.382Z,23.40
2023-04-11T14:10:18.461Z,23.40
2023-04-11T14:12:46.869Z,23.10
2023-04-11T14:15:14.830Z,23.00
2023-04-11T14:17:43.914Z,23.10
2023-04-11T14:20:12.437Z,23.30
2023-04-11T14:22:42.011Z,23.10
2023-04-11T14:25:11.366Z,23.10
2023-04-11T14:27:41.908Z,22.90
2023-04-11T14:30:11.605Z,22.90
2023-04-11T14:32:40.409Z,23.40
2023-04-11T14:35:09.773Z,23.00
2023-04-11T14:37:38.200Z,22.90
2023-04-11T14:40:10.719Z,23.10
2023-04-11T14:42:39.586Z,23.20
2023-04-11T14:45:08.916Z,23.20
2023-04-11T14:47:37.021Z,23.30
2023-04-11T14:50:05.655Z,23.00
2023-04-11T14:52:33.624Z,23.20
2023-04-11T14:55:01.593Z,23.00
2023-04-11T14:57:46.955Z,22.90
2023-04-11T15:00:19.972Z,22.80
2023-04-11T15:02:51.286Z,22.80
2023-04-11T15:05:20.132Z,22.60
2023-04-11T15:07:50.009Z,22.60
2023-04-11T15:10:20.920Z,22.50
2023-04-11T15:12:50.637Z,22.60
2023-04-11T15:15:18.585Z,22.60
2023-04-11T15:17:48.804Z,22.70
2023-04-11T15:20:19.369Z,22.70
2023-04-11T15:22:47.480Z,22.40
2023-04-11T15:25:17.059Z,22.70
2023-04-11T15:27:45.088Z,22.50
2023-04-11T15:30:15.208Z,22.60
2023-04-11T15:32:44.474Z,22.50
2023-04-11T15:35:12.730Z,22.60
2023-04-11T15:37:41.101Z,23.00
2023-04-11T15:40:11.793Z,23.10
2023-04-11T15:42:39.832Z,23.10
2023-04-11T15:45:09.093Z,23.10
2023-04-11T15:47:38.474Z,23.10
2023-04-11T15:50:07.651Z,22.90
2023-04-11T15:52:35.662Z,22.90
2023-04-11T15:55:03.665Z,23.10
2023-04-11T15:57:31.736Z,23.40
2023-04-11T15:59:59.853Z,23.10
2023-04-11T16:02:28.231Z,23.20
2023-04-11T16:04:58.773Z,23.10
2023-04-11T16:07:26.844Z,23.30
2023-04-11T16:09:55.523Z,23.30
2023-04-11T16:12:23.660Z,23.30
2023-04-11T16:14:51.601Z,23.30
2023-04-11T16:17:20.487Z,23.20
2023-04-11T16:19:51.926Z,23.20
2023-04-11T16:22:21.494Z,23.30
2023-04-11T16:24:49.597Z,23.10
2023-04-11T16:27:18.788Z,23.20
2023-04-11T16:29:46.904Z,23.20
2023-04-11T16:32:15.033Z,22.90
2023-04-11T16:34:42.992Z,23.40
2023-04-11T16:37:11.039Z,23.10
2023-04-11T16:39:40.344Z,23.10
2023-04-11T16:42:08.252Z,23.20
2023-04-11T16:44:36.189Z,23.10
2023-04-11T16:47:04.446Z,23.20
2023-04-11T16:49:32.583Z,23.50
2023-04-11T16:52:00.629Z,23.10
2023-04-11T16:54:28.546Z,23.10
2023-04-11T16:56:57.896Z,23.20
2023-04-11T16:59:25.834Z,23.00
2023-04-11T17:01:53.950Z,23.20
2023-04-11T17:04:22.229Z,23.10
2023-04-11T17:06:50.393Z,23.50
2023-04-11T17:09:19.109Z,22.90
2023-04-11T17:11:47.108Z,23.00
2023-04-11T17:14:16.466Z,23.10
2023-04-11T17:16:45.901Z,22.90
2023-04-11T17:19:14.042Z,22.90
2023-04-11T17:21:42.093Z,23.10
2023-04-11T17:24:10.111Z,23.10
2023-04-11T17:26:38.078Z,23.00
2023-04-11T17:29:06.705Z,22.90
2023-04-11T17:31:36.030Z,23.20
2023-04-11T17:34:04.328Z,22.80
2023-04-11T17:36:32.296Z,22.70
2023-04-11T17:39:00.278Z,22.90
2023-04-11T17:41:28.296Z,23.10
2023-04-11T17:43:57.281Z,22.80
2023-04-11T17:46:25.948Z,22.70
2023-04-11T17:48:55.497Z,22.70
2023-04-11T17:51:23.493Z,22.60
2023-04-11T17:53:52.103Z,22.60
2023-04-11T17:56:20.474Z,22.20
2023-04-11T17:58:48.891Z,22.60
2023-04-11T18:01:16.893Z,22.50
2023-04-11T18:03:45.069Z,22.50
2023-04-11T18:06:14.891Z,22.50
2023-04-11T18:11:14.018Z,21.30
2023-04-11T18:13:44.013Z,20.80
2023-04-11T18:16:12.191Z,20.70
2023-04-11T18:18:40.400Z,20.60
2023-04-11T18:21:08.459Z,20.50
2023-04-11T18:23:39.086Z,20.70
2023-04-11T18:26:07.093Z,20.40
2023-04-11T18:28:35.069Z,20.60
2023-04-11T18:31:03.219Z,20.70
2023-04-11T18:33:31.991Z,20.80
2023-04-11T18:36:00.259Z,21.10
2023-04-11T18:38:28.385Z,21.60
2023-04-11T18:40:59.930Z,21.50
2023-04-11T18:43:29.446Z,21.70
2023-04-11T18:45:57.387Z,21.70
2023-04-11T18:48:25.463Z,21.70
2023-04-11T18:51:00.610Z,21.60
2023-04-11T18:53:29.933Z,21.80
2023-04-11T18:56:02.857Z,21.80
2023-04-11T18:58:33.187Z,21.60
2023-04-11T19:01:13.998Z,21.70
2023-04-11T19:03:44.137Z,22.00
2023-04-11T19:06:12.997Z,21.70
2023-04-11T19:08:41.732Z,21.90
2023-04-11T19:11:11.113Z,21.70
2023-04-11T19:13:39.093Z,21.70
2023-04-11T19:16:07.872Z,21.90
2023-04-11T19:18:35.874Z,21.60
2023-04-11T19:21:04.052Z,22.10
2023-04-11T19:23:32.195Z,21.80
2023-04-11T19:26:00.698Z,21.90
2023-04-11T19:28:30.163Z,21.60
2023-04-11T19:30:58.160Z,21.40
2023-04-11T19:33:26.707Z,21.50
2023-04-11T19:35:55.015Z,21.60
2023-04-11T19:38:23.039Z,21.40
2023-04-11T19:40:51.045Z,21.70
2023-04-11T19:43:19.654Z,21.60
2023-04-11T19:45:48.990Z,21.50
2023-04-11T19:48:17.403Z,21.30
2023-04-11T19:50:45.412Z,21.60
2023-04-11T19:53:13.422Z,21.30
2023-04-11T19:55:41.663Z,21.50
2023-04-11T19:58:09.638Z,21.40
2023-04-11T20:00:38.481Z,21.50
2023-04-11T20:03:12.114Z,21.20
2023-04-11T20:05:40.139Z,21.40
2023-04-11T20:08:08.142Z,21.00
2023-04-11T20:10:37.419Z,21.30
2023-04-11T20:13:05.796Z,21.20
2023-04-11T20:15:34.222Z,21.20
2023-04-11T20:18:02.236Z,21.20
2023-04-11T20:20:33.499Z,21.20
2023-04-11T20:23:04.739Z,21.30
2023-04-11T20:25:32.859Z,21.00
2023-04-11T20:28:01.201Z,21.10
2023-04-11T20:30:29.842Z,21.20
2023-04-11T20:32:57.913Z,21.00
2023-04-11T20:35:26.156Z,21.40
2023-04-11T20:37:55.980Z,21.30
2023-04-11T20:40:24.266Z,21.30
2023-04-11T20:42:52.308Z,21.10
2023-04-11T20:45:21.866Z,21.30
2023-04-11T20:47:50.588Z,21.20
2023-04-11T20:50:19.292Z,20.90
2023-04-11T20:52:52.238Z,20.90
2023-04-11T20:55:21.621Z,21.40
2023-04-11T20:57:49.550Z,21.50
2023-04-11T21:00:19.718Z,21.20
2023-04-11T21:02:50.273Z,21.10
2023-04-11T21:05:20.904Z,21.30
2023-04-11T21:07:48.904Z,20.90
2023-04-11T21:10:17.025Z,21.40
2023-04-11T21:12:51.091Z,21.40
2023-04-11T21:15:20.235Z,21.30
2023-04-11T21:17:48.873Z,21.30
2023-04-11T21:20:20.258Z,21.10
2023-04-11T21:22:49.630Z,21.30
2023-04-11T21:25:17.997Z,21.10
2023-04-11T21:27:48.022Z,21.40
2023-04-11T21:30:16.121Z,21.20
2023-04-11T21:32:44.191Z,21.20
2023-04-11T21:35:13.103Z,21.30
2023-04-11T21:37:41.121Z,21.30
2023-04-11T21:40:10.419Z,21.20
2023-04-11T21:42:39.123Z,21.10
2023-04-11T21:45:09.867Z,21.30
2023-04-11T21:47:38.009Z,21.10
2023-04-11T21:50:07.364Z,21.00
2023-04-11T21:52:35.325Z,21.10
2023-04-11T21:55:03.709Z,20.70
2023-04-11T21:57:34.305Z,21.10
2023-04-11T22:00:02.430Z,21.10
2023-04-11T22:02:32.070Z,21.20
2023-04-11T22:05:06.305Z,21.20
2023-04-11T22:07:39.266Z,21.30
2023-04-11T22:10:12.067Z,21.00
2023-04-11T22:12:40.514Z,20.90
2023-04-11T22:15:12.360Z,21.00
2023-04-11T22:17:43.439Z,21.00
2023-04-11T22:20:13.196Z,21.20
2023-04-11T22:22:42.048Z,21.20
2023-04-11T22:25:11.415Z,20.90
2023-04-11T22:27:39.423Z,21.00
2023-04-11T22:30:09.591Z,21.20
2023-04-11T22:32:37.926Z,21.20
2023-04-11T22:35:09.184Z,21.10
2023-04-11T22:37:37.133Z,21.10
2023-04-11T22:40:06.761Z,21.00
2023-04-11T22:42:35.658Z,21.00
2023-04-11T22:45:03.923Z,20.60
2023-04-11T22:47:34.051Z,21.00
2023-04-11T22:50:03.441Z,21.20
2023-04-11T22:52:32.850Z,20.70
2023-04-11T22:55:00.840Z,21.00
2023-04-11T22:57:28.846Z,21.20
2023-04-11T22:59:56.847Z,21.20
2023-04-11T23:02:25.170Z,21.10
2023-04-11T23:04:53.458Z,20.90
2023-04-11T23:07:22.185Z,20.70
2023-04-11T23:09:52.461Z,20.60
2023-04-11T23:12:20.902Z,20.80
2023-04-11T23:14:50.363Z,20.70
2023-04-11T23:17:18.431Z,20.80
2023-04-11T23:19:47.058Z,21.00
2023-04-11T23:22:15.057Z,20.70
2023-04-11T23:24:43.031Z,21.10
2023-04-11T23:27:13.233Z,20.90
2023-04-11T23:29:41.552Z,20.90
2023-04-11T23:32:09.466Z,21.00
2023-04-11T23:34:37.430Z,21.00
2023-04-11T23:37:05.388Z,20.80
2023-04-11T23:39:33.346Z,21.10
2023-04-11T23:42:01.299Z,21.10
2023-04-11T23:44:31.113Z,20.90
2023-04-11T23:47:00.003Z,20.40
2023-04-11T23:49:27.962Z,20.60
2023-04-11T23:51:56.037Z,21.10
2023-04-11T23:54:26.655Z,20.40
2023-04-11T23:56:56.862Z,21.00
2023-04-11T23:59:24.917Z,20.80
